This is the latest recevied weather packets stored in our database for station/object DH1NAI-6. If no packets are shown the sender has not sent any weather packets the latest 10 day(s).
| Time | Temp. | Humidity | Pressure | Rain* | Wind** | Luminosity | Snow |
|---|---|---|---|---|---|---|---|
| 1787518215 | 6.11° C | 99% | 1020.7 hPa | 0 mm | - | 0 W/m² | - |
| 1787517607 | 6.11° C | 99% | 1020.5 hPa | 0 mm | - | 0 W/m² | - |
| 1787516999 | 6.11° C | 98% | 1020.6 hPa | 0 mm | - | 0 W/m² | - |
| 1787516391 | 6.11° C | 99% | 1020.6 hPa | 0 mm | - | 0 W/m² | - |
| 1787515783 | 6.67° C | 99% | 1020.7 hPa | 0 mm | - | 0 W/m² | - |
| 1787515175 | 6.67° C | 98% | 1020.6 hPa | 0 mm | - | 0 W/m² | - |
| 1787514567 | 7.22° C | 98% | 1020.6 hPa | 0 mm | - | 0 W/m² | - |
| 1787513959 | 7.22° C | 98% | 1020.8 hPa | 0 mm | - | 0 W/m² | - |
| 1787513351 | 7.78° C | 97% | 1020.5 hPa | 0 mm | - | 0 W/m² | - |
| 1787512743 | 7.78° C | 97% | 1020.8 hPa | 0 mm | - | 0 W/m² | - |
| 1787512135 | 7.78° C | 95% | 1020.7 hPa | 0 mm | - | 0 W/m² | - |
| 1787511527 | 8.33° C | 94% | 1020.6 hPa | 0 mm | - | 0 W/m² | - |
| 1787510919 | 9.44° C | 92% | 1020.6 hPa | 0 mm | - | 0 W/m² | - |
| 1787510311 | 10° C | 90% | 1020.3 hPa | 0 mm | - | 0 W/m² | - |
| 1787509703 | 11.11° C | 85% | 1020.7 hPa | 0 mm | - | 0 W/m² | - |
| 1787509095 | 12.22° C | 81% | 1020.6 hPa | 0 mm | - | 1 W/m² | - |
| 1787508487 | 12.78° C | 79% | 1020.3 hPa | 0 mm | - | 2 W/m² | - |
| 1787507879 | 13.89° C | 74% | 1020.3 hPa | 0 mm | - | 3 W/m² | - |
| 1787507271 | 15° C | 69% | 1020.3 hPa | 0 mm | - | 6 W/m² | - |
| 1787506663 | 15° C | 67% | 1020 hPa | 0 mm | - | 8 W/m² | - |
| 1787506052 | 15° C | 66% | 1020.1 hPa | 0 mm | - | 8 W/m² | - |
| 1787505447 | 15.56° C | 65% | 1020.2 hPa | 0 mm | - | 8 W/m² | - |
| 1787504839 | 16.11° C | 63% | 1020 hPa | 0 mm | - | 12 W/m² | - |
| 1787504231 | 16.11° C | 63% | 1020.2 hPa | 0 mm | - | 15 W/m² | - |
| 1787503623 | 16.11° C | 64% | 1020.5 hPa | 0 mm | - | 14 W/m² | - |
* Rain latest hour (hover to see other rain measurements)
** Current wind speed in m/s (hover to see current wind gust speed)